sensor_id;sensor_type;location;lat;lon;timestamp;pressure;altitude;pressure_sealevel;temperature;humidity
46955;BME280;32708;51.212;6.788;2023-05-09T00:02:23;101180.91;;;21.69;100.00
46955;BME280;32708;51.212;6.788;2023-05-09T00:04:49;101185.88;;;21.12;100.00
46955;BME280;32708;51.212;6.788;2023-05-09T00:07:16;101178.09;;;20.92;100.00
46955;BME280;32708;51.212;6.788;2023-05-09T00:09:43;101161.00;;;21.23;100.00
46955;BME280;32708;51.212;6.788;2023-05-09T00:12:09;101168.31;;;20.68;100.00
46955;BME280;32708;51.212;6.788;2023-05-09T00:14:37;101167.69;;;21.19;100.00
46955;BME280;32708;51.212;6.788;2023-05-09T00:17:05;101169.75;;;20.92;100.00
46955;BME280;32708;51.212;6.788;2023-05-09T00:19:32;101161.97;;;21.38;100.00
46955;BME280;32708;51.212;6.788;2023-05-09T00:21:59;101161.81;;;21.24;100.00
46955;BME280;32708;51.212;6.788;2023-05-09T00:24:25;101172.16;;;20.93;100.00
46955;BME280;32708;51.212;6.788;2023-05-09T00:26:51;101157.22;;;21.42;100.00
46955;BME280;32708;51.212;6.788;2023-05-09T00:29:17;101149.06;;;21.60;100.00
46955;BME280;32708;51.212;6.788;2023-05-09T00:31:43;101150.41;;;21.80;100.00
46955;BME280;32708;51.212;6.788;2023-05-09T00:34:09;101156.41;;;21.38;100.00
46955;BME280;32708;51.212;6.788;2023-05-09T00:36:35;101149.41;;;21.51;100.00
46955;BME280;32708;51.212;6.788;2023-05-09T00:39:02;101139.19;;;21.25;100.00
46955;BME280;32708;51.212;6.788;2023-05-09T00:41:28;101135.50;;;21.14;100.00
46955;BME280;32708;51.212;6.788;2023-05-09T00:43:54;101131.34;;;21.31;100.00
46955;BME280;32708;51.212;6.788;2023-05-09T00:46:21;101134.13;;;21.31;100.00
46955;BME280;32708;51.212;6.788;2023-05-09T00:48:47;101137.78;;;21.01;100.00
46955;BME280;32708;51.212;6.788;2023-05-09T00:51:15;101125.94;;;21.08;100.00
46955;BME280;32708;51.212;6.788;2023-05-09T00:53:41;101118.34;;;21.05;100.00
46955;BME280;32708;51.212;6.788;2023-05-09T00:56:08;101118.34;;;21.01;100.00
46955;BME280;32708;51.212;6.788;2023-05-09T00:58:36;101122.16;;;20.86;100.00
46955;BME280;32708;51.212;6.788;2023-05-09T01:01:03;101116.91;;;20.47;100.00
46955;BME280;32708;51.212;6.788;2023-05-09T01:03:30;101126.22;;;20.99;100.00
46955;BME280;32708;51.212;6.788;2023-05-09T01:08:57;101115.75;;;20.82;100.00
46955;BME280;32708;51.212;6.788;2023-05-09T01:11:46;101109.84;;;20.87;100.00
46955;BME280;32708;51.212;6.788;2023-05-09T01:16:52;101113.91;;;20.59;100.00
46955;BME280;32708;51.212;6.788;2023-05-09T01:22:32;101096.13;;;21.01;100.00
46955;BME280;32708;51.212;6.788;2023-05-09T01:28:59;101095.03;;;20.72;100.00
46955;BME280;32708;51.212;6.788;2023-05-09T01:31:37;101087.09;;;21.52;100.00
46955;BME280;32708;51.212;6.788;2023-05-09T01:34:09;101082.38;;;21.60;100.00
46955;BME280;32708;51.212;6.788;2023-05-09T01:36:39;101088.56;;;21.42;100.00
46955;BME280;32708;51.212;6.788;2023-05-09T01:39:12;101092.84;;;21.29;100.00
46955;BME280;32708;51.212;6.788;2023-05-09T01:41:39;101095.75;;;21.03;100.00
46955;BME280;32708;51.212;6.788;2023-05-09T01:44:10;101099.84;;;21.16;100.00
46955;BME280;32708;51.212;6.788;2023-05-09T01:46:38;101086.25;;;21.48;100.00
46955;BME280;32708;51.212;6.788;2023-05-09T01:49:07;101082.59;;;21.37;100.00
46955;BME280;32708;51.212;6.788;2023-05-09T01:51:37;101081.28;;;21.27;100.00
46955;BME280;32708;51.212;6.788;2023-05-09T01:54:06;101084.22;;;21.41;100.00
46955;BME280;32708;51.212;6.788;2023-05-09T01:56:36;101079.00;;;21.88;100.00
46955;BME280;32708;51.212;6.788;2023-05-09T01:59:06;101077.16;;;21.55;100.00
46955;BME280;32708;51.212;6.788;2023-05-09T02:01:34;101079.75;;;21.85;100.00
46955;BME280;32708;51.212;6.788;2023-05-09T02:04:05;101080.25;;;22.01;100.00
46955;BME280;32708;51.212;6.788;2023-05-09T02:06:32;101086.91;;;21.86;100.00
46955;BME280;32708;51.212;6.788;2023-05-09T02:09:01;101081.81;;;21.40;100.00
46955;BME280;32708;51.212;6.788;2023-05-09T02:11:27;101083.22;;;21.71;100.00
46955;BME280;32708;51.212;6.788;2023-05-09T02:13:54;101079.75;;;21.85;100.00
46955;BME280;32708;51.212;6.788;2023-05-09T02:16:21;101074.75;;;21.50;100.00
46955;BME280;32708;51.212;6.788;2023-05-09T02:18:47;101075.91;;;21.45;100.00
46955;BME280;32708;51.212;6.788;2023-05-09T02:21:13;101072.59;;;21.84;100.00
46955;BME280;32708;51.212;6.788;2023-05-09T02:23:39;101075.28;;;21.69;100.00
46955;BME280;32708;51.212;6.788;2023-05-09T02:26:07;101067.88;;;21.91;100.00
46955;BME280;32708;51.212;6.788;2023-05-09T02:28:37;101084.84;;;21.24;100.00
46955;BME280;32708;51.212;6.788;2023-05-09T02:31:07;101082.44;;;21.67;100.00
46955;BME280;32708;51.212;6.788;2023-05-09T02:33:37;101080.53;;;21.82;100.00
46955;BME280;32708;51.212;6.788;2023-05-09T02:36:05;101081.44;;;22.00;100.00
46955;BME280;32708;51.212;6.788;2023-05-09T02:38:34;101072.94;;;22.48;100.00
46955;BME280;32708;51.212;6.788;2023-05-09T02:41:01;101074.44;;;22.24;100.00
46955;BME280;32708;51.212;6.788;2023-05-09T02:43:27;101072.38;;;22.10;100.00
46955;BME280;32708;51.212;6.788;2023-05-09T02:45:54;101069.16;;;22.01;100.00
46955;BME280;32708;51.212;6.788;2023-05-09T02:48:20;101063.75;;;22.33;100.00
46955;BME280;32708;51.212;6.788;2023-05-09T02:50:46;101069.88;;;21.91;100.00
46955;BME280;32708;51.212;6.788;2023-05-09T02:53:12;101068.72;;;21.99;100.00
46955;BME280;32708;51.212;6.788;2023-05-09T02:55:40;101076.44;;;21.61;100.00
46955;BME280;32708;51.212;6.788;2023-05-09T02:58:07;101072.06;;;21.16;100.00
46955;BME280;32708;51.212;6.788;2023-05-09T03:00:33;101068.88;;;21.62;100.00
46955;BME280;32708;51.212;6.788;2023-05-09T03:03:01;101057.81;;;21.65;100.00
46955;BME280;32708;51.212;6.788;2023-05-09T03:05:27;101045.63;;;21.91;100.00
46955;BME280;32708;51.212;6.788;2023-05-09T03:07:54;101052.66;;;21.67;100.00
46955;BME280;32708;51.212;6.788;2023-05-09T03:10:20;101054.50;;;22.11;100.00
46955;BME280;32708;51.212;6.788;2023-05-09T03:12:49;101062.56;;;22.34;100.00
46955;BME280;32708;51.212;6.788;2023-05-09T03:15:15;101057.66;;;21.44;100.00
46955;BME280;32708;51.212;6.788;2023-05-09T03:17:44;101055.16;;;21.90;100.00
46955;BME280;32708;51.212;6.788;2023-05-09T03:20:10;101063.56;;;21.39;100.00
46955;BME280;32708;51.212;6.788;2023-05-09T03:22:36;101057.59;;;21.37;100.00
46955;BME280;32708;51.212;6.788;2023-05-09T03:25:06;101063.03;;;21.78;100.00
46955;BME280;32708;51.212;6.788;2023-05-09T03:27:32;101059.84;;;21.76;100.00
46955;BME280;32708;51.212;6.788;2023-05-09T03:29:59;101051.22;;;21.95;100.00
46955;BME280;32708;51.212;6.788;2023-05-09T03:32:26;101056.13;;;21.54;100.00
46955;BME280;32708;51.212;6.788;2023-05-09T03:34:52;101052.47;;;21.42;100.00
46955;BME280;32708;51.212;6.788;2023-05-09T03:37:19;101044.81;;;21.84;100.00
46955;BME280;32708;51.212;6.788;2023-05-09T03:39:46;101052.25;;;21.65;100.00
46955;BME280;32708;51.212;6.788;2023-05-09T03:42:12;101041.31;;;21.97;100.00
46955;BME280;32708;51.212;6.788;2023-05-09T03:44:40;101034.59;;;22.06;100.00
46955;BME280;32708;51.212;6.788;2023-05-09T03:47:06;101035.88;;;22.15;100.00
46955;BME280;32708;51.212;6.788;2023-05-09T03:49:37;101019.84;;;21.94;100.00
46955;BME280;32708;51.212;6.788;2023-05-09T03:52:07;101030.91;;;21.84;100.00
46955;BME280;32708;51.212;6.788;2023-05-09T03:54:34;101031.00;;;22.05;100.00
46955;BME280;32708;51.212;6.788;2023-05-09T03:57:01;101033.13;;;21.57;100.00
46955;BME280;32708;51.212;6.788;2023-05-09T03:59:28;101020.28;;;22.07;100.00
46955;BME280;32708;51.212;6.788;2023-05-09T04:01:55;101028.44;;;21.71;100.00
46955;BME280;32708;51.212;6.788;2023-05-09T04:04:24;101024.03;;;21.63;100.00
46955;BME280;32708;51.212;6.788;2023-05-09T04:06:50;101013.78;;;21.75;100.00
46955;BME280;32708;51.212;6.788;2023-05-09T04:09:21;101012.28;;;21.91;100.00
46955;BME280;32708;51.212;6.788;2023-05-09T04:11:47;101018.81;;;21.55;100.00
46955;BME280;32708;51.212;6.788;2023-05-09T04:14:14;101017.53;;;21.41;100.00
46955;BME280;32708;51.212;6.788;2023-05-09T04:16:41;101009.25;;;21.45;100.00
46955;BME280;32708;51.212;6.788;2023-05-09T04:19:08;101009.53;;;21.29;100.00
46955;BME280;32708;51.212;6.788;2023-05-09T04:21:35;101011.13;;;21.30;100.00
46955;BME280;32708;51.212;6.788;2023-05-09T04:24:02;101001.63;;;20.87;100.00
46955;BME280;32708;51.212;6.788;2023-05-09T04:26:39;100999.31;;;21.44;100.00
46955;BME280;32708;51.212;6.788;2023-05-09T04:29:09;100991.47;;;21.60;100.00
46955;BME280;32708;51.212;6.788;2023-05-09T04:31:36;100985.84;;;21.46;100.00
46955;BME280;32708;51.212;6.788;2023-05-09T04:34:02;100996.06;;;21.35;100.00
46955;BME280;32708;51.212;6.788;2023-05-09T04:36:32;100988.13;;;21.33;100.00
46955;BME280;32708;51.212;6.788;2023-05-09T04:38:59;100990.28;;;21.61;100.00
46955;BME280;32708;51.212;6.788;2023-05-09T04:41:27;100987.66;;;21.90;100.00
46955;BME280;32708;51.212;6.788;2023-05-09T04:43:54;100992.88;;;21.29;100.00
46955;BME280;32708;51.212;6.788;2023-05-09T04:46:21;100985.66;;;21.90;100.00
46955;BME280;32708;51.212;6.788;2023-05-09T04:48:47;100995.31;;;21.41;100.00
46955;BME280;32708;51.212;6.788;2023-05-09T04:51:14;100999.84;;;21.12;100.00
46955;BME280;32708;51.212;6.788;2023-05-09T04:53:40;100993.09;;;21.65;100.00
46955;BME280;32708;51.212;6.788;2023-05-09T04:56:06;100994.84;;;21.98;100.00
46955;BME280;32708;51.212;6.788;2023-05-09T04:58:35;100990.56;;;22.11;100.00
46955;BME280;32708;51.212;6.788;2023-05-09T05:01:05;100988.13;;;22.03;100.00
46955;BME280;32708;51.212;6.788;2023-05-09T05:03:32;101000.22;;;21.11;100.00
46955;BME280;32708;51.212;6.788;2023-05-09T05:05:58;100979.47;;;21.46;100.00
46955;BME280;32708;51.212;6.788;2023-05-09T05:08:25;100985.63;;;21.80;100.00
46955;BME280;32708;51.212;6.788;2023-05-09T05:10:51;100977.25;;;21.73;100.00
46955;BME280;32708;51.212;6.788;2023-05-09T05:13:18;100975.88;;;22.21;100.00
46955;BME280;32708;51.212;6.788;2023-05-09T05:15:48;100978.13;;;21.87;100.00
46955;BME280;32708;51.212;6.788;2023-05-09T05:18:15;100976.31;;;21.47;100.00
46955;BME280;32708;51.212;6.788;2023-05-09T05:20:41;100965.44;;;21.97;100.00
46955;BME280;32708;51.212;6.788;2023-05-09T05:23:08;100964.78;;;21.45;100.00
46955;BME280;32708;51.212;6.788;2023-05-09T05:25:35;100959.47;;;21.88;100.00
46955;BME280;32708;51.212;6.788;2023-05-09T05:28:02;100960.84;;;22.40;100.00
46955;BME280;32708;51.212;6.788;2023-05-09T05:30:28;100964.59;;;21.82;100.00
46955;BME280;32708;51.212;6.788;2023-05-09T05:32:55;100960.69;;;21.28;100.00
46955;BME280;32708;51.212;6.788;2023-05-09T05:35:22;100945.03;;;21.64;100.00
46955;BME280;32708;51.212;6.788;2023-05-09T05:37:53;100954.03;;;21.40;100.00
46955;BME280;32708;51.212;6.788;2023-05-09T05:40:19;100949.09;;;21.81;100.00
46955;BME280;32708;51.212;6.788;2023-05-09T05:42:48;100945.13;;;21.86;100.00
46955;BME280;32708;51.212;6.788;2023-05-09T05:45:14;100932.84;;;21.90;100.00
46955;BME280;32708;51.212;6.788;2023-05-09T05:47:44;100929.84;;;22.45;100.00
46955;BME280;32708;51.212;6.788;2023-05-09T05:50:11;100921.38;;;23.74;95.33
46955;BME280;32708;51.212;6.788;2023-05-09T05:52:39;100911.56;;;24.21;92.12
46955;BME280;32708;51.212;6.788;2023-05-09T05:55:06;100908.25;;;23.60;92.68
46955;BME280;32708;51.212;6.788;2023-05-09T05:57:33;100909.72;;;23.93;92.40
46955;BME280;32708;51.212;6.788;2023-05-09T06:00:00;100898.84;;;24.13;90.59
46955;BME280;32708;51.212;6.788;2023-05-09T06:02:43;100900.03;;;25.19;86.83
46955;BME280;32708;51.212;6.788;2023-05-09T06:05:13;100897.97;;;24.34;89.07
46955;BME280;32708;51.212;6.788;2023-05-09T06:07:39;100909.88;;;23.61;91.52
46955;BME280;32708;51.212;6.788;2023-05-09T06:10:07;100892.16;;;24.03;89.99
46955;BME280;32708;51.212;6.788;2023-05-09T06:12:33;100896.72;;;23.72;91.63
46955;BME280;32708;51.212;6.788;2023-05-09T06:15:00;100884.16;;;24.64;88.78
46955;BME280;32708;51.212;6.788;2023-05-09T06:17:27;100899.69;;;22.94;95.92
46955;BME280;32708;51.212;6.788;2023-05-09T06:19:54;100887.44;;;23.89;91.94
46955;BME280;32708;51.212;6.788;2023-05-09T06:22:20;100875.88;;;24.98;87.78
46955;BME280;32708;51.212;6.788;2023-05-09T06:24:47;100872.91;;;24.20;88.07
46955;BME280;32708;51.212;6.788;2023-05-09T06:27:13;100883.19;;;23.67;92.31
46955;BME280;32708;51.212;6.788;2023-05-09T06:29:39;100884.91;;;23.18;94.65
46955;BME280;32708;51.212;6.788;2023-05-09T06:32:05;100886.00;;;23.53;95.99
46955;BME280;32708;51.212;6.788;2023-05-09T06:34:31;100882.75;;;23.69;93.85
46955;BME280;32708;51.212;6.788;2023-05-09T06:37:00;100873.53;;;23.82;93.18
46955;BME280;32708;51.212;6.788;2023-05-09T06:39:27;100870.06;;;23.60;94.92
46955;BME280;32708;51.212;6.788;2023-05-09T06:41:53;100867.00;;;23.16;96.77
46955;BME280;32708;51.212;6.788;2023-05-09T06:44:29;100859.81;;;23.29;97.81
46955;BME280;32708;51.212;6.788;2023-05-09T06:46:55;100861.19;;;23.83;94.17
46955;BME280;32708;51.212;6.788;2023-05-09T06:49:21;100857.16;;;23.92;92.68
46955;BME280;32708;51.212;6.788;2023-05-09T06:51:47;100863.41;;;23.29;97.32
46955;BME280;32708;51.212;6.788;2023-05-09T06:54:13;100844.91;;;23.75;94.08
46955;BME280;32708;51.212;6.788;2023-05-09T06:56:42;100854.09;;;23.68;94.81
46955;BME280;32708;51.212;6.788;2023-05-09T06:59:16;100850.13;;;23.55;95.59
46955;BME280;32708;51.212;6.788;2023-05-09T07:01:42;100851.44;;;23.25;99.00
46955;BME280;32708;51.212;6.788;2023-05-09T07:04:08;100841.91;;;23.19;98.13
46955;BME280;32708;51.212;6.788;2023-05-09T07:06:34;100840.75;;;23.10;98.78
46955;BME280;32708;51.212;6.788;2023-05-09T07:09:11;100849.56;;;22.79;100.00
46955;BME280;32708;51.212;6.788;2023-05-09T07:11:40;100846.34;;;22.70;100.00
46955;BME280;32708;51.212;6.788;2023-05-09T07:14:06;100842.81;;;22.88;100.00
46955;BME280;32708;51.212;6.788;2023-05-09T07:16:32;100835.22;;;22.85;100.00
46955;BME280;32708;51.212;6.788;2023-05-09T07:18:58;100835.22;;;23.02;100.00
46955;BME280;32708;51.212;6.788;2023-05-09T07:21:28;100822.38;;;23.33;98.50
46955;BME280;32708;51.212;6.788;2023-05-09T07:23:54;100824.03;;;23.13;98.36
46955;BME280;32708;51.212;6.788;2023-05-09T07:26:20;100820.06;;;23.07;100.00
46955;BME280;32708;51.212;6.788;2023-05-09T07:28:46;100828.88;;;22.73;100.00
46955;BME280;32708;51.212;6.788;2023-05-09T07:31:12;100820.69;;;23.54;98.58
46955;BME280;32708;51.212;6.788;2023-05-09T07:33:42;100816.06;;;23.22;98.10
46955;BME280;32708;51.212;6.788;2023-05-09T07:36:08;100816.06;;;23.12;99.25
46955;BME280;32708;51.212;6.788;2023-05-09T07:38:38;100815.28;;;23.15;99.09
46955;BME280;32708;51.212;6.788;2023-05-09T07:41:05;100816.34;;;23.42;98.81
46955;BME280;32708;51.212;6.788;2023-05-09T07:43:31;100806.19;;;23.87;95.22
46955;BME280;32708;51.212;6.788;2023-05-09T07:45:58;100806.88;;;23.25;98.41
46955;BME280;32708;51.212;6.788;2023-05-09T07:48:24;100808.06;;;23.31;97.87
46955;BME280;32708;51.212;6.788;2023-05-09T07:50:51;100800.34;;;23.68;95.41
46955;BME280;32708;51.212;6.788;2023-05-09T07:53:17;100802.19;;;23.04;98.80
46955;BME280;32708;51.212;6.788;2023-05-09T07:55:43;100801.44;;;22.90;97.90
46955;BME280;32708;51.212;6.788;2023-05-09T07:58:12;100776.59;;;24.53;89.27
46955;BME280;32708;51.212;6.788;2023-05-09T08:00:39;100774.56;;;25.29;85.90
46955;BME280;32708;51.212;6.788;2023-05-09T08:03:05;100756.75;;;25.76;81.47
46955;BME280;32708;51.212;6.788;2023-05-09T08:05:31;100759.19;;;25.71;81.48
46955;BME280;32708;51.212;6.788;2023-05-09T08:07:58;100743.19;;;26.02;78.50
46955;BME280;32708;51.212;6.788;2023-05-09T08:10:24;100730.28;;;26.75;74.71
46955;BME280;32708;51.212;6.788;2023-05-09T08:12:51;100745.75;;;25.01;81.54
46955;BME280;32708;51.212;6.788;2023-05-09T08:15:18;100740.56;;;24.99;80.47
46955;BME280;32708;51.212;6.788;2023-05-09T08:17:44;100727.97;;;25.79;77.19
46955;BME280;32708;51.212;6.788;2023-05-09T08:20:11;100726.63;;;25.88;76.50
46955;BME280;32708;51.212;6.788;2023-05-09T08:22:39;100716.91;;;26.63;72.70
46955;BME280;32708;51.212;6.788;2023-05-09T08:25:07;100718.00;;;26.25;73.93
46955;BME280;32708;51.212;6.788;2023-05-09T08:27:36;100716.00;;;25.48;76.57
46955;BME280;32708;51.212;6.788;2023-05-09T08:30:02;100702.13;;;26.19;73.22
46955;BME280;32708;51.212;6.788;2023-05-09T08:32:30;100715.69;;;25.70;75.79
46955;BME280;32708;51.212;6.788;2023-05-09T08:34:57;100695.50;;;26.29;71.45
46955;BME280;32708;51.212;6.788;2023-05-09T08:37:23;100699.56;;;26.04;71.05
46955;BME280;32708;51.212;6.788;2023-05-09T08:39:49;100696.53;;;26.82;67.85
46955;BME280;32708;51.212;6.788;2023-05-09T08:42:16;100684.44;;;26.85;65.50
46955;BME280;32708;51.212;6.788;2023-05-09T08:44:45;100685.97;;;26.70;64.87
46955;BME280;32708;51.212;6.788;2023-05-09T08:47:12;100675.06;;;26.95;62.33
46955;BME280;32708;51.212;6.788;2023-05-09T08:49:40;100675.38;;;27.69;60.13
46955;BME280;32708;51.212;6.788;2023-05-09T08:52:07;100674.56;;;28.18;57.96
46955;BME280;32708;51.212;6.788;2023-05-09T08:54:34;100669.59;;;27.93;59.09
46955;BME280;32708;51.212;6.788;2023-05-09T08:57:04;100672.44;;;28.38;56.90
46955;BME280;32708;51.212;6.788;2023-05-09T08:59:34;100672.38;;;28.09;56.98
46955;BME280;32708;51.212;6.788;2023-05-09T09:02:05;100673.66;;;29.08;54.04
46955;BME280;32708;51.212;6.788;2023-05-09T09:04:32;100669.88;;;28.44;55.67
46955;BME280;32708;51.212;6.788;2023-05-09T09:07:03;100662.13;;;29.92;51.36
46955;BME280;32708;51.212;6.788;2023-05-09T09:09:34;100652.72;;;30.20;49.59
46955;BME280;32708;51.212;6.788;2023-05-09T09:12:05;100656.66;;;29.12;52.24
46955;BME280;32708;51.212;6.788;2023-05-09T09:14:41;100638.91;;;28.02;54.19
46955;BME280;32708;51.212;6.788;2023-05-09T09:17:23;100657.75;;;27.53;55.77
46955;BME280;32708;51.212;6.788;2023-05-09T09:19:57;100648.78;;;26.49;58.46
46955;BME280;32708;51.212;6.788;2023-05-09T09:22:32;100654.25;;;27.65;56.81
46955;BME280;32708;51.212;6.788;2023-05-09T09:25:00;100645.19;;;28.06;56.06
46955;BME280;32708;51.212;6.788;2023-05-09T09:27:27;100655.91;;;27.62;55.23
46955;BME280;32708;51.212;6.788;2023-05-09T09:29:53;100638.53;;;28.00;54.53
46955;BME280;32708;51.212;6.788;2023-05-09T09:32:19;100654.38;;;26.49;58.11
46955;BME280;32708;51.212;6.788;2023-05-09T09:35:08;100642.31;;;26.72;58.59
46955;BME280;32708;51.212;6.788;2023-05-09T09:37:36;100644.59;;;26.57;57.44
46955;BME280;32708;51.212;6.788;2023-05-09T09:40:09;100636.69;;;27.28;56.34
46955;BME280;32708;51.212;6.788;2023-05-09T09:42:47;100648.16;;;26.98;58.15
46955;BME280;32708;51.212;6.788;2023-05-09T09:45:16;100634.16;;;27.50;56.44
46955;BME280;32708;51.212;6.788;2023-05-09T09:47:47;100635.66;;;27.02;57.95
46955;BME280;32708;51.212;6.788;2023-05-09T09:50:17;100629.22;;;25.83;61.84
46955;BME280;32708;51.212;6.788;2023-05-09T09:52:55;100632.06;;;26.66;60.18
46955;BME280;32708;51.212;6.788;2023-05-09T09:55:23;100626.28;;;27.61;57.00
46955;BME280;32708;51.212;6.788;2023-05-09T09:57:50;100615.88;;;27.29;58.30
46955;BME280;32708;51.212;6.788;2023-05-09T10:00:24;100618.13;;;27.67;55.28
46955;BME280;32708;51.212;6.788;2023-05-09T10:02:54;100605.28;;;27.01;57.02
46955;BME280;32708;51.212;6.788;2023-05-09T10:05:30;100604.97;;;27.64;55.79
46955;BME280;32708;51.212;6.788;2023-05-09T10:08:03;100606.47;;;27.36;57.18
46955;BME280;32708;51.212;6.788;2023-05-09T10:10:35;100599.16;;;28.04;55.48
46955;BME280;32708;51.212;6.788;2023-05-09T10:13:08;100599.31;;;26.63;58.27
46955;BME280;32708;51.212;6.788;2023-05-09T10:15:36;100602.53;;;26.81;58.21
46955;BME280;32708;51.212;6.788;2023-05-09T10:18:04;100606.91;;;26.62;60.18
46955;BME280;32708;51.212;6.788;2023-05-09T10:20:34;100607.97;;;26.09;61.38
46955;BME280;32708;51.212;6.788;2023-05-09T10:23:02;100584.56;;;27.14;57.26
46955;BME280;32708;51.212;6.788;2023-05-09T10:25:38;100591.22;;;27.53;56.82
46955;BME280;32708;51.212;6.788;2023-05-09T10:28:17;100589.97;;;26.69;58.37
46955;BME280;32708;51.212;6.788;2023-05-09T10:31:08;100580.13;;;26.97;57.38
46955;BME280;32708;51.212;6.788;2023-05-09T10:33:50;100578.63;;;26.37;58.99
46955;BME280;32708;51.212;6.788;2023-05-09T10:36:21;100573.97;;;26.30;59.07
46955;BME280;32708;51.212;6.788;2023-05-09T10:38:54;100564.09;;;26.98;56.08
46955;BME280;32708;51.212;6.788;2023-05-09T10:41:21;100563.81;;;26.76;56.94
46955;BME280;32708;51.212;6.788;2023-05-09T10:43:49;100566.38;;;27.23;57.56
46955;BME280;32708;51.212;6.788;2023-05-09T10:46:15;100553.66;;;27.18;56.27
46955;BME280;32708;51.212;6.788;2023-05-09T10:48:43;100560.38;;;26.68;59.40
46955;BME280;32708;51.212;6.788;2023-05-09T10:51:12;100563.63;;;26.47;60.15
46955;BME280;32708;51.212;6.788;2023-05-09T10:53:48;100551.31;;;26.80;58.24
46955;BME280;32708;51.212;6.788;2023-05-09T10:56:27;100553.72;;;26.78;58.33
46955;BME280;32708;51.212;6.788;2023-05-09T10:58:54;100545.03;;;27.41;56.42
46955;BME280;32708;51.212;6.788;2023-05-09T11:01:37;100534.28;;;27.73;55.08
46955;BME280;32708;51.212;6.788;2023-05-09T11:04:14;100532.47;;;28.37;52.92
46955;BME280;32708;51.212;6.788;2023-05-09T11:06:48;100526.25;;;27.87;53.48
46955;BME280;32708;51.212;6.788;2023-05-09T11:09:34;100526.09;;;27.62;54.30
46955;BME280;32708;51.212;6.788;2023-05-09T11:12:14;100531.72;;;28.20;53.63
46955;BME280;32708;51.212;6.788;2023-05-09T11:14:44;100524.47;;;27.32;55.10
46955;BME280;32708;51.212;6.788;2023-05-09T11:22:20;100501.47;;;28.78;51.29
46955;BME280;32708;51.212;6.788;2023-05-09T11:24:49;100502.31;;;27.05;55.85
46955;BME280;32708;51.212;6.788;2023-05-09T11:27:21;100502.34;;;27.50;54.68
46955;BME280;32708;51.212;6.788;2023-05-09T11:29:54;100493.88;;;28.66;51.52
46955;BME280;32708;51.212;6.788;2023-05-09T11:32:39;100491.22;;;27.63;53.02
46955;BME280;32708;51.212;6.788;2023-05-09T11:35:14;100478.00;;;28.47;51.56
46955;BME280;32708;51.212;6.788;2023-05-09T11:38:03;100465.19;;;29.44;49.27
46955;BME280;32708;51.212;6.788;2023-05-09T11:40:33;100468.00;;;28.84;49.83
46955;BME280;32708;51.212;6.788;2023-05-09T11:43:00;100463.53;;;28.07;51.96
46955;BME280;32708;51.212;6.788;2023-05-09T11:45:30;100458.19;;;27.54;52.32
46955;BME280;32708;51.212;6.788;2023-05-09T11:47:57;100457.56;;;28.46;50.37
46955;BME280;32708;51.212;6.788;2023-05-09T11:50:24;100464.53;;;27.87;52.04
46955;BME280;32708;51.212;6.788;2023-05-09T11:52:52;100449.69;;;28.54;49.97
46955;BME280;32708;51.212;6.788;2023-05-09T11:55:20;100452.56;;;28.12;51.14
46955;BME280;32708;51.212;6.788;2023-05-09T11:57:51;100436.25;;;28.07;50.92
46955;BME280;32708;51.212;6.788;2023-05-09T12:00:19;100443.81;;;28.23;51.87
46955;BME280;32708;51.212;6.788;2023-05-09T12:02:47;100447.84;;;26.89;56.79
46955;BME280;32708;51.212;6.788;2023-05-09T12:05:20;100444.38;;;27.47;54.29
46955;BME280;32708;51.212;6.788;2023-05-09T12:07:47;100438.72;;;26.85;55.44
46955;BME280;32708;51.212;6.788;2023-05-09T12:10:18;100428.50;;;27.98;53.34
46955;BME280;32708;51.212;6.788;2023-05-09T12:12:50;100428.56;;;27.24;54.00
46955;BME280;32708;51.212;6.788;2023-05-09T12:15:17;100422.97;;;26.92;55.63
46955;BME280;32708;51.212;6.788;2023-05-09T12:17:45;100413.25;;;27.12;55.25
46955;BME280;32708;51.212;6.788;2023-05-09T12:20:12;100422.09;;;27.11;55.38
46955;BME280;32708;51.212;6.788;2023-05-09T12:22:42;100414.50;;;27.11;55.80
46955;BME280;32708;51.212;6.788;2023-05-09T12:25:10;100419.84;;;27.35;56.51
46955;BME280;32708;51.212;6.788;2023-05-09T12:27:40;100418.88;;;27.41;55.64
46955;BME280;32708;51.212;6.788;2023-05-09T12:30:08;100412.88;;;27.56;55.64
46955;BME280;32708;51.212;6.788;2023-05-09T12:32:41;100408.44;;;27.42;55.86
46955;BME280;32708;51.212;6.788;2023-05-09T12:35:09;100393.13;;;27.01;56.76
46955;BME280;32708;51.212;6.788;2023-05-09T12:37:36;100393.50;;;28.03;53.46
46955;BME280;32708;51.212;6.788;2023-05-09T12:40:11;100393.25;;;27.27;55.67
46955;BME280;32708;51.212;6.788;2023-05-09T12:42:44;100396.63;;;26.89;56.16
46955;BME280;32708;51.212;6.788;2023-05-09T12:45:11;100392.00;;;27.44;55.17
46955;BME280;32708;51.212;6.788;2023-05-09T12:47:38;100389.16;;;26.99;55.36
46955;BME280;32708;51.212;6.788;2023-05-09T12:50:09;100376.50;;;26.78;55.54
46955;BME280;32708;51.212;6.788;2023-05-09T12:52:41;100384.16;;;27.81;53.04
46955;BME280;32708;51.212;6.788;2023-05-09T12:55:10;100378.41;;;26.97;54.82
46955;BME280;32708;51.212;6.788;2023-05-09T12:57:39;100377.28;;;26.62;55.72
46955;BME280;32708;51.212;6.788;2023-05-09T13:00:09;100383.03;;;27.04;54.00
46955;BME280;32708;51.212;6.788;2023-05-09T13:05:55;100381.19;;;27.30;56.10
46955;BME280;32708;51.212;6.788;2023-05-09T13:08:32;100387.00;;;26.41;59.01
46955;BME280;32708;51.212;6.788;2023-05-09T13:11:17;100403.16;;;25.77;68.87
46955;BME280;32708;51.212;6.788;2023-05-09T13:13:45;100404.19;;;25.01;73.91
46955;BME280;32708;51.212;6.788;2023-05-09T13:16:11;100408.91;;;25.27;74.95